Zimmerdale, Kansas
Current Conditions -  °F | °C
As of 7:15 PM on Sunday 21 Dec 2014 (Local Time) from KEWK Reporting Station
Overcast Overcast  
Wind Chill: 34°   Ceiling: 600
Heat Index: 43°   Visibility: 6mi
Dew Point: 37°   Wind: 20mph
Humidity: 81%   Direction: 170°S
Pressure: 29.7"   Gusts: NA
Location:  38.0076°N, 97.2953°W
Report Text: KEWK 220115Z AUTO 17017KT 6SM OVC006 06/03 A2970 RMK AO1
Loading
Personal Weather Stations






























Interactive Weather Map New forecast layout! Learn more

10-Day Weather Forecast

Advertisements
Track Severe Weather on mobile